createdAt,value
2023-05-13T00:00:13.739Z,0.00
2023-05-13T00:00:52.481Z,0.00
2023-05-13T00:01:52.430Z,0.00
2023-05-13T00:02:52.533Z,0.00
2023-05-13T00:03:52.763Z,0.00
2023-05-13T00:04:52.409Z,0.00
2023-05-13T00:05:52.585Z,0.00
2023-05-13T00:06:52.222Z,0.00
2023-05-13T00:07:52.177Z,0.00
2023-05-13T00:08:52.196Z,0.00
2023-05-13T00:09:54.152Z,0.00
2023-05-13T00:10:53.186Z,0.00
2023-05-13T00:11:52.116Z,0.00
2023-05-13T00:12:51.959Z,0.00
2023-05-13T00:13:51.938Z,0.00
2023-05-13T00:14:51.870Z,0.00
2023-05-13T00:15:51.996Z,0.00
2023-05-13T00:16:51.792Z,0.00
2023-05-13T00:17:52.081Z,0.00
2023-05-13T00:18:51.854Z,0.00
2023-05-13T00:19:51.665Z,0.00
2023-05-13T00:20:51.768Z,0.00
2023-05-13T00:21:51.670Z,0.00
2023-05-13T00:22:51.798Z,0.00
2023-05-13T00:23:51.530Z,0.00
2023-05-13T00:24:52.621Z,0.00
2023-05-13T00:25:52.680Z,0.00
2023-05-13T00:27:12.497Z,0.00
2023-05-13T00:27:51.320Z,0.00
2023-05-13T00:28:51.421Z,0.00
2023-05-13T00:29:51.351Z,0.00
2023-05-13T00:30:51.485Z,0.00
2023-05-13T00:31:51.183Z,0.00
2023-05-13T00:32:51.263Z,0.00
2023-05-13T00:33:51.037Z,0.00
2023-05-13T00:34:51.332Z,0.00
2023-05-13T00:35:50.969Z,0.00
2023-05-13T00:36:51.013Z,0.00
2023-05-13T00:37:50.905Z,0.00
2023-05-13T00:38:51.086Z,0.00
2023-05-13T00:39:50.982Z,0.00
2023-05-13T00:40:50.988Z,0.00
2023-05-13T00:41:50.701Z,0.00
2023-05-13T00:42:50.678Z,0.00
2023-05-13T00:43:51.782Z,0.00
2023-05-13T00:44:50.575Z,0.00
2023-05-13T00:45:50.786Z,0.00
2023-05-13T00:46:50.783Z,0.00
2023-05-13T00:47:50.572Z,0.00
2023-05-13T00:48:50.462Z,0.00
2023-05-13T00:49:52.601Z,0.00
2023-05-13T00:50:50.391Z,0.00
2023-05-13T00:51:51.594Z,0.00
2023-05-13T00:52:50.238Z,0.00
2023-05-13T00:53:50.175Z,0.00
2023-05-13T00:54:50.129Z,0.00
2023-05-13T00:55:51.675Z,0.00
2023-05-13T00:56:50.049Z,0.00
2023-05-13T00:57:50.200Z,0.00
2023-05-13T00:58:49.955Z,0.00
2023-05-13T00:59:49.912Z,0.00
2023-05-13T01:00:49.881Z,0.00
2023-05-13T01:02:11.966Z,0.00
2023-05-13T01:02:49.814Z,0.00
2023-05-13T01:03:49.839Z,0.00
2023-05-13T01:04:49.700Z,0.00
2023-05-13T01:05:49.644Z,0.00
2023-05-13T01:06:49.608Z,0.00
2023-05-13T01:07:50.076Z,0.00
2023-05-13T01:08:49.512Z,0.00
2023-05-13T01:09:49.716Z,0.00
2023-05-13T01:10:49.437Z,0.00
2023-05-13T01:11:49.382Z,0.00
2023-05-13T01:12:49.490Z,0.00
2023-05-13T01:13:49.329Z,0.00
2023-05-13T01:14:49.506Z,0.00
2023-05-13T01:15:49.211Z,0.00
2023-05-13T01:16:49.368Z,0.00
2023-05-13T01:17:49.160Z,0.00
2023-05-13T01:18:49.349Z,0.00
2023-05-13T01:19:49.077Z,0.00
2023-05-13T01:20:49.145Z,0.00
2023-05-13T01:21:48.949Z,0.00
2023-05-13T01:22:48.923Z,0.00
2023-05-13T01:23:48.931Z,0.00
2023-05-13T01:24:48.960Z,0.00
2023-05-13T01:25:49.145Z,0.00
2023-05-13T01:26:48.982Z,0.00
2023-05-13T01:27:48.758Z,0.00
2023-05-13T01:28:48.644Z,0.00
2023-05-13T01:29:48.607Z,0.00
2023-05-13T01:30:48.844Z,0.00
2023-05-13T01:31:48.516Z,0.00
2023-05-13T01:32:48.762Z,0.00
2023-05-13T01:33:48.438Z,0.00
2023-05-13T01:34:48.393Z,0.00
2023-05-13T01:35:48.478Z,0.00
2023-05-13T01:36:48.645Z,0.00
2023-05-13T01:37:48.330Z,0.00
2023-05-13T01:38:48.467Z,0.00
2023-05-13T01:39:48.172Z,0.00
2023-05-13T01:40:48.125Z,0.00
2023-05-13T01:41:48.270Z,0.00
2023-05-13T01:42:48.079Z,0.00
2023-05-13T01:43:48.394Z,0.00
2023-05-13T01:44:47.954Z,0.00
2023-05-13T01:45:48.098Z,0.00
2023-05-13T01:46:47.931Z,0.00
2023-05-13T01:47:48.240Z,0.00
2023-05-13T01:48:47.993Z,0.00
2023-05-13T01:49:48.129Z,0.00
2023-05-13T01:50:47.696Z,0.00
2023-05-13T01:51:47.647Z,0.00
2023-05-13T01:52:47.616Z,0.00
2023-05-13T01:53:47.762Z,0.00
2023-05-13T01:54:47.519Z,0.00
2023-05-13T01:55:47.965Z,0.00
2023-05-13T01:56:47.436Z,0.00
2023-05-13T01:57:47.388Z,0.00
2023-05-13T01:58:47.575Z,0.00
2023-05-13T01:59:47.422Z,0.00
2023-05-13T02:00:47.390Z,0.00
2023-05-13T02:01:47.234Z,0.00
2023-05-13T02:02:51.762Z,0.00
2023-05-13T02:03:47.160Z,0.00
2023-05-13T02:05:08.408Z,0.00
2023-05-13T02:05:47.090Z,0.00
2023-05-13T02:06:47.266Z,0.00
2023-05-13T02:07:46.959Z,0.00
2023-05-13T02:08:47.034Z,0.00
2023-05-13T02:09:46.869Z,0.00
2023-05-13T02:10:48.274Z,0.00
2023-05-13T02:11:46.797Z,0.00
2023-05-13T02:12:46.924Z,0.00
2023-05-13T02:13:46.707Z,0.00
2023-05-13T02:14:46.655Z,0.00
2023-05-13T02:15:46.618Z,0.00
2023-05-13T02:16:46.930Z,0.00
2023-05-13T02:17:46.558Z,0.00
2023-05-13T02:18:46.807Z,0.00
2023-05-13T02:19:46.469Z,0.00
2023-05-13T02:20:46.452Z,0.00
2023-05-13T02:21:46.354Z,0.00
2023-05-13T02:22:46.732Z,0.00
2023-05-13T02:23:46.264Z,0.00
2023-05-13T02:24:46.339Z,0.00
2023-05-13T02:25:46.189Z,0.00
2023-05-13T02:26:46.138Z,0.00
2023-05-13T02:28:07.447Z,0.00
2023-05-13T02:28:46.053Z,0.00
2023-05-13T02:29:47.201Z,0.00
2023-05-13T02:30:45.980Z,0.00
2023-05-13T02:31:48.088Z,0.00
2023-05-13T02:32:45.899Z,0.00
2023-05-13T02:33:48.247Z,0.00
2023-05-13T02:34:45.793Z,0.00
2023-05-13T02:35:46.024Z,0.00
2023-05-13T02:36:45.708Z,0.00
2023-05-13T02:37:45.668Z,0.00
2023-05-13T02:38:45.641Z,0.00
2023-05-13T02:39:45.835Z,0.00
2023-05-13T02:40:45.533Z,0.00
2023-05-13T02:41:45.734Z,0.00
2023-05-13T02:42:45.443Z,0.00
2023-05-13T02:43:45.401Z,0.00
2023-05-13T02:44:45.693Z,0.00
2023-05-13T02:45:45.365Z,0.00
2023-05-13T02:46:45.474Z,0.00
2023-05-13T02:47:45.269Z,0.00
2023-05-13T02:48:45.494Z,0.00
2023-05-13T02:49:45.292Z,0.00
2023-05-13T02:50:45.099Z,0.00
2023-05-13T02:51:45.510Z,0.00
2023-05-13T02:52:45.028Z,0.00
2023-05-13T02:53:45.124Z,0.00
2023-05-13T02:54:45.021Z,0.00
2023-05-13T02:55:44.884Z,0.00
2023-05-13T02:56:45.150Z,0.00
2023-05-13T02:57:44.838Z,0.00
2023-05-13T02:58:44.866Z,0.00
2023-05-13T02:59:44.711Z,0.00
2023-05-13T03:00:44.976Z,0.00
2023-05-13T03:01:44.855Z,0.00
2023-05-13T03:02:44.812Z,0.00
2023-05-13T03:03:44.598Z,0.00
2023-05-13T03:04:44.525Z,0.00
2023-05-13T03:05:44.606Z,0.00
2023-05-13T03:06:44.442Z,0.00
2023-05-13T03:07:44.606Z,0.00
2023-05-13T03:08:44.328Z,0.00
2023-05-13T03:09:44.329Z,0.00
2023-05-13T03:10:44.388Z,0.00
2023-05-13T03:11:46.480Z,0.00
2023-05-13T03:12:44.344Z,0.00
2023-05-13T03:13:44.099Z,0.00
2023-05-13T03:14:44.267Z,0.00
2023-05-13T03:15:44.716Z,0.00
2023-05-13T03:18:15.702Z,0.00
2023-05-13T03:19:15.898Z,0.00
2023-05-13T03:20:15.597Z,0.00
2023-05-13T03:21:15.836Z,0.00
2023-05-13T03:22:15.512Z,0.00
2023-05-13T03:23:15.652Z,0.00
2023-05-13T03:24:15.660Z,0.00
2023-05-13T03:25:17.505Z,0.00
2023-05-13T03:26:15.520Z,0.00
2023-05-13T03:27:16.496Z,0.00
2023-05-13T03:28:15.247Z,0.00
2023-05-13T03:29:15.491Z,0.00
2023-05-13T03:30:15.165Z,0.00
2023-05-13T03:31:15.330Z,0.00
2023-05-13T03:32:15.174Z,0.00
2023-05-13T03:33:15.309Z,0.00
2023-05-13T03:34:15.026Z,0.00
2023-05-13T03:35:14.935Z,0.00
2023-05-13T03:36:15.128Z,0.00
2023-05-13T03:37:14.851Z,0.00
2023-05-13T03:38:15.151Z,0.00
2023-05-13T03:39:14.761Z,0.00
2023-05-13T03:40:14.950Z,0.00
2023-05-13T03:41:14.686Z,0.00
2023-05-13T03:42:14.761Z,0.00
2023-05-13T03:43:14.596Z,0.00
2023-05-13T03:44:14.884Z,0.00
2023-05-13T03:45:14.507Z,0.00
2023-05-13T03:46:14.477Z,0.00
2023-05-13T03:47:14.459Z,0.00
2023-05-13T03:48:14.609Z,0.00
2023-05-13T03:49:14.318Z,0.00
2023-05-13T03:50:14.609Z,0.00
2023-05-13T03:51:14.262Z,0.00
2023-05-13T03:52:14.196Z,0.00
2023-05-13T03:53:14.159Z,0.00
2023-05-13T03:54:14.441Z,5.63
2023-05-13T03:55:14.063Z,5.63
2023-05-13T03:56:17.424Z,5.63
2023-05-13T03:57:13.983Z,5.63
2023-05-13T03:58:13.984Z,5.63
2023-05-13T03:59:13.983Z,5.63
2023-05-13T04:00:13.854Z,5.63
2023-05-13T04:01:13.986Z,5.63
2023-05-13T04:02:13.956Z,5.63
2023-05-13T04:03:13.776Z,5.63
2023-05-13T04:04:13.671Z,5.63
2023-05-13T04:05:14.972Z,5.63
2023-05-13T04:06:13.584Z,5.63
2023-05-13T04:07:13.616Z,5.63
2023-05-13T04:08:13.675Z,11.25
2023-05-13T04:09:13.462Z,11.25
2023-05-13T04:10:15.761Z,11.25
2023-05-13T04:11:13.367Z,11.25
2023-05-13T04:12:14.469Z,11.25
2023-05-13T04:13:13.301Z,11.25
2023-05-13T04:14:13.268Z,11.25
2023-05-13T04:15:13.204Z,11.25
2023-05-13T04:16:13.338Z,16.88
2023-05-13T04:17:13.183Z,16.88
2023-05-13T04:18:13.295Z,16.88
2023-05-13T04:19:13.124Z,16.88
2023-05-13T04:20:13.159Z,22.50
2023-05-13T04:21:15.168Z,22.50
2023-05-13T04:22:12.922Z,22.50
2023-05-13T04:23:12.909Z,22.50
2023-05-13T04:24:12.807Z,22.50
2023-05-13T04:25:14.991Z,28.13
2023-05-13T04:26:12.742Z,28.13
2023-05-13T04:27:36.092Z,28.13
2023-05-13T04:28:12.634Z,28.13
2023-05-13T04:30:44.197Z,33.75
2023-05-13T04:31:44.158Z,39.38
2023-05-13T04:33:06.289Z,39.38
2023-05-13T04:33:44.034Z,39.38
2023-05-13T04:34:43.995Z,45.00
2023-05-13T04:35:44.022Z,45.00
2023-05-13T04:36:43.924Z,45.00
2023-05-13T04:37:45.992Z,45.00
2023-05-13T04:38:44.043Z,45.00
2023-05-13T04:39:43.951Z,45.00
2023-05-13T04:40:43.739Z,45.00
2023-05-13T04:41:43.783Z,45.00
2023-05-13T04:42:43.722Z,50.63
2023-05-13T04:43:43.786Z,50.63
2023-05-13T04:44:43.587Z,56.25
2023-05-13T04:45:43.593Z,56.25
2023-05-13T04:46:43.546Z,56.25
2023-05-13T04:47:43.633Z,61.88
2023-05-13T04:48:43.389Z,67.50
2023-05-13T04:49:44.439Z,67.50
2023-05-13T04:50:44.521Z,73.13
2023-05-13T04:51:44.481Z,78.75
2023-05-13T04:52:43.209Z,78.75
2023-05-13T04:53:43.173Z,84.38
2023-05-13T04:54:43.198Z,84.38
2023-05-13T04:55:44.272Z,90.00
2023-05-13T04:56:43.056Z,90.00
2023-05-13T04:57:43.059Z,95.63
2023-05-13T04:58:42.954Z,95.63
2023-05-13T04:59:42.915Z,101.25
2023-05-13T05:00:44.331Z,101.25
2023-05-13T05:01:42.831Z,106.88
2023-05-13T05:02:42.942Z,106.88
2023-05-13T05:03:42.796Z,112.50
2023-05-13T05:04:42.905Z,112.50
2023-05-13T05:05:42.661Z,118.13
2023-05-13T05:06:42.722Z,118.13
2023-05-13T05:07:42.573Z,118.13
2023-05-13T05:08:42.743Z,129.38
2023-05-13T05:09:42.484Z,129.38
2023-05-13T05:10:42.440Z,135.00
2023-05-13T05:11:42.418Z,135.00
2023-05-13T05:12:42.775Z,140.63
2023-05-13T05:13:42.321Z,140.63
2023-05-13T05:14:42.365Z,140.63
2023-05-13T05:15:42.241Z,140.63
2023-05-13T05:16:42.186Z,140.63
2023-05-13T05:17:42.260Z,146.25
2023-05-13T05:18:42.325Z,146.25
2023-05-13T05:19:42.256Z,151.88
2023-05-13T05:20:42.209Z,157.50
2023-05-13T05:21:42.064Z,163.13
2023-05-13T05:22:42.043Z,168.75
2023-05-13T05:23:41.913Z,174.38
2023-05-13T05:24:42.030Z,174.38
2023-05-13T05:25:41.805Z,180.00
2023-05-13T05:26:42.849Z,180.00
2023-05-13T05:27:48.039Z,180.00
2023-05-13T05:28:42.879Z,180.00
2023-05-13T05:29:41.637Z,180.00
2023-05-13T05:30:41.694Z,185.63
2023-05-13T05:31:41.599Z,191.25
2023-05-13T05:32:41.746Z,196.88
2023-05-13T05:33:41.463Z,208.13
2023-05-13T05:34:41.487Z,208.13
2023-05-13T05:35:41.377Z,213.75
2023-05-13T05:36:41.521Z,213.75
2023-05-13T05:37:41.384Z,219.38
2023-05-13T05:38:41.253Z,219.38
2023-05-13T05:39:41.301Z,225.00
2023-05-13T05:40:41.328Z,230.63
2023-05-13T05:41:41.133Z,236.25
2023-05-13T05:42:41.144Z,247.50
2023-05-13T05:43:43.453Z,258.75
2023-05-13T05:44:40.988Z,270.00
2023-05-13T05:45:42.033Z,281.25
2023-05-13T05:46:40.898Z,292.50
2023-05-13T05:47:41.015Z,292.50
2023-05-13T05:48:40.814Z,298.13
2023-05-13T05:49:40.986Z,298.13
2023-05-13T05:50:40.740Z,303.75
2023-05-13T05:51:41.832Z,303.75
2023-05-13T05:52:40.856Z,309.38
2023-05-13T05:53:40.840Z,315.00
2023-05-13T05:54:40.587Z,326.25
2023-05-13T05:55:40.524Z,331.88
2023-05-13T05:56:40.493Z,343.13
2023-05-13T05:57:40.650Z,343.13
2023-05-13T05:58:40.421Z,348.75
2023-05-13T05:59:40.456Z,354.38
2023-05-13T06:03:46.743Z,365.63
2023-05-13T06:04:46.898Z,365.63
2023-05-13T06:05:46.682Z,371.25
2023-05-13T06:06:46.599Z,376.88
2023-05-13T06:07:46.497Z,376.88
2023-05-13T06:08:46.456Z,376.88
2023-05-13T06:09:46.462Z,382.50
2023-05-13T06:10:46.352Z,382.50
2023-05-13T06:11:47.699Z,393.75
2023-05-13T06:12:46.484Z,393.75
2023-05-13T06:13:46.229Z,399.38
2023-05-13T06:14:47.313Z,410.63
2023-05-13T06:15:46.175Z,416.25
2023-05-13T06:16:46.304Z,427.50
2023-05-13T06:17:46.114Z,433.13
2023-05-13T06:18:46.096Z,433.13
2023-05-13T06:19:49.605Z,427.50
2023-05-13T06:20:45.936Z,421.88
2023-05-13T06:21:47.016Z,421.88
2023-05-13T06:22:45.843Z,410.63
2023-05-13T06:23:45.828Z,410.63
2023-05-13T06:24:45.759Z,410.63
2023-05-13T06:25:45.973Z,416.25
2023-05-13T06:26:45.676Z,427.50
2023-05-13T06:27:45.798Z,438.75
2023-05-13T06:28:45.587Z,455.63
2023-05-13T06:29:45.546Z,466.88
2023-05-13T06:30:45.501Z,478.13
2023-05-13T06:31:50.228Z,489.38
2023-05-13T06:32:57.414Z,500.63
2023-05-13T06:33:45.426Z,517.50
2023-05-13T06:34:45.419Z,528.75
2023-05-13T06:35:45.293Z,545.63
2023-05-13T06:36:46.651Z,562.50
2023-05-13T06:37:45.223Z,579.38
2023-05-13T06:38:45.238Z,585.00
2023-05-13T06:39:45.151Z,590.63
2023-05-13T06:40:45.084Z,579.38
2023-05-13T06:41:45.260Z,556.88
2023-05-13T06:42:45.004Z,534.38
2023-05-13T06:43:45.071Z,511.88
2023-05-13T06:44:44.923Z,489.38
2023-05-13T06:45:45.285Z,472.50
2023-05-13T06:46:44.886Z,455.63
2023-05-13T06:48:06.047Z,450.00
2023-05-13T06:48:44.782Z,444.38
2023-05-13T06:49:44.910Z,438.75
2023-05-13T06:50:44.666Z,427.50
2023-05-13T06:51:44.625Z,421.88
2023-05-13T06:52:44.581Z,427.50
2023-05-13T06:53:44.730Z,444.38
2023-05-13T06:54:44.790Z,455.63
2023-05-13T06:55:44.563Z,461.25
2023-05-13T06:56:44.413Z,455.63
2023-05-13T06:57:44.373Z,472.50
2023-05-13T06:58:44.336Z,511.88
2023-05-13T06:59:46.425Z,551.25
2023-05-13T07:00:44.489Z,573.75
2023-05-13T07:01:44.390Z,590.63
2023-05-13T07:02:44.224Z,590.63
2023-05-13T07:03:44.327Z,579.38
2023-05-13T07:04:44.205Z,568.13
2023-05-13T07:05:44.070Z,579.38
2023-05-13T07:06:44.217Z,596.25
2023-05-13T07:07:43.952Z,613.13
2023-05-13T07:08:43.914Z,624.38
2023-05-13T07:09:43.870Z,624.38
2023-05-13T07:10:44.036Z,630.00
2023-05-13T07:11:45.128Z,635.63
2023-05-13T07:12:43.860Z,624.38
2023-05-13T07:13:43.703Z,613.13
2023-05-13T07:14:43.659Z,579.38
2023-05-13T07:15:43.881Z,568.13
2023-05-13T07:16:43.603Z,579.38
2023-05-13T07:17:43.765Z,585.00
2023-05-13T07:18:43.591Z,579.38
2023-05-13T07:19:43.690Z,573.75
2023-05-13T07:20:43.410Z,551.25
2023-05-13T07:21:43.502Z,528.75
2023-05-13T07:22:43.324Z,506.25
2023-05-13T07:23:44.453Z,500.63
2023-05-13T07:24:43.317Z,511.88
2023-05-13T07:25:43.435Z,540.00
2023-05-13T07:26:43.156Z,562.50
2023-05-13T07:27:43.346Z,585.00
2023-05-13T07:28:43.112Z,601.88
2023-05-13T07:29:44.178Z,613.13
2023-05-13T07:30:43.009Z,618.75
2023-05-13T07:31:42.946Z,613.13
2023-05-13T07:32:42.934Z,624.38
2023-05-13T07:33:44.025Z,630.00
2023-05-13T07:34:42.842Z,641.25
2023-05-13T07:35:43.194Z,652.50
2023-05-13T07:36:42.738Z,663.75
2023-05-13T07:37:42.703Z,686.25
2023-05-13T07:38:42.820Z,714.38
2023-05-13T07:39:42.659Z,748.13
2023-05-13T07:41:03.725Z,776.25
2023-05-13T07:41:42.621Z,781.88
2023-05-13T07:42:42.498Z,776.25
2023-05-13T07:43:43.998Z,770.63
2023-05-13T07:44:42.493Z,753.75
2023-05-13T07:45:42.654Z,765.00
2023-05-13T07:46:42.546Z,781.88
2023-05-13T07:47:44.348Z,787.50
2023-05-13T07:48:43.513Z,781.88
2023-05-13T07:49:42.206Z,781.88
2023-05-13T07:50:42.287Z,815.63
2023-05-13T07:51:42.256Z,871.88
2023-05-13T07:52:42.296Z,916.88
2023-05-13T07:53:42.056Z,939.38
2023-05-13T07:54:42.033Z,939.38
2023-05-13T07:55:43.558Z,933.75
2023-05-13T07:56:41.933Z,933.75
2023-05-13T07:57:42.247Z,945.00
2023-05-13T07:58:41.847Z,945.00
2023-05-13T07:59:43.322Z,894.38
2023-05-13T08:00:41.774Z,855.00
2023-05-13T08:01:41.959Z,810.00
2023-05-13T08:02:41.733Z,748.13
2023-05-13T08:03:41.866Z,708.75
2023-05-13T08:04:41.666Z,691.88
2023-05-13T08:05:41.781Z,691.88
2023-05-13T08:06:42.873Z,703.13
2023-05-13T08:07:41.592Z,714.38
2023-05-13T08:08:41.430Z,742.50
2023-05-13T08:09:41.624Z,776.25
2023-05-13T08:10:41.347Z,815.63
2023-05-13T08:11:41.307Z,843.75
2023-05-13T08:12:41.307Z,860.63
2023-05-13T08:13:41.433Z,888.75
2023-05-13T08:14:41.185Z,911.25
2023-05-13T08:15:41.245Z,939.38
2023-05-13T08:16:41.157Z,973.13
2023-05-13T08:17:41.105Z,1001.25
2023-05-13T08:18:44.848Z,1051.88
2023-05-13T08:19:41.012Z,1080.00
2023-05-13T08:20:41.097Z,1108.13
2023-05-13T08:21:40.945Z,1136.25
2023-05-13T08:22:42.109Z,1181.25
2023-05-13T08:23:45.725Z,1209.38
2023-05-13T08:24:42.946Z,1243.13
2023-05-13T08:25:40.858Z,1254.38
2023-05-13T08:26:40.914Z,1226.25
2023-05-13T08:27:40.659Z,1198.13
2023-05-13T08:28:41.904Z,1158.75
2023-05-13T08:29:40.571Z,1147.50
2023-05-13T08:30:44.029Z,1153.13
2023-05-13T08:31:40.547Z,1158.75
2023-05-13T08:32:40.608Z,1175.63
2023-05-13T08:33:40.409Z,1181.25
2023-05-13T08:34:40.377Z,1186.88
2023-05-13T08:35:40.367Z,1209.38
2023-05-13T08:36:41.423Z,1220.63
2023-05-13T08:37:40.257Z,1215.00
2023-05-13T08:38:40.394Z,1226.25
2023-05-13T08:39:40.176Z,1237.50
2023-05-13T08:40:40.195Z,1226.25
2023-05-13T08:41:42.449Z,1186.88
2023-05-13T08:42:40.105Z,1158.75
2023-05-13T08:43:41.248Z,1130.63
2023-05-13T08:44:39.984Z,1080.00
2023-05-13T08:45:40.131Z,1046.25
2023-05-13T08:46:42.115Z,1068.75
2023-05-13T08:47:40.352Z,1108.13
2023-05-13T08:48:39.812Z,1231.88
2023-05-13T08:49:40.070Z,1378.13
2023-05-13T08:50:39.818Z,1485.00
2023-05-13T08:51:41.918Z,1580.63
2023-05-13T08:52:40.903Z,1665.00
2023-05-13T08:53:39.945Z,1738.13
2023-05-13T08:54:41.735Z,1800.00
2023-05-13T08:55:39.537Z,1873.13
2023-05-13T08:56:39.705Z,1918.13
2023-05-13T08:57:39.460Z,1946.25
2023-05-13T08:58:39.497Z,1991.25
2023-05-13T08:59:39.420Z,2053.13
2023-05-13T09:00:39.543Z,2115.00
2023-05-13T09:01:41.734Z,2199.38
2023-05-13T09:02:39.589Z,2188.13
2023-05-13T09:03:39.248Z,2103.75
2023-05-13T09:04:39.205Z,2025.00
2023-05-13T09:05:39.313Z,1951.88
2023-05-13T09:06:39.381Z,1890.00
2023-05-13T09:07:42.502Z,1845.00
2023-05-13T09:08:40.200Z,1850.63
2023-05-13T09:09:38.996Z,1867.50
2023-05-13T09:10:38.971Z,1850.63
2023-05-13T09:11:39.162Z,1833.75
2023-05-13T09:12:39.012Z,1861.88
2023-05-13T09:13:38.851Z,1890.00
2023-05-13T09:14:41.076Z,1918.13
2023-05-13T09:15:38.825Z,1935.00
2023-05-13T09:16:38.814Z,1974.38
2023-05-13T09:17:38.741Z,2025.00
2023-05-13T09:18:39.196Z,2053.13
2023-05-13T09:19:38.781Z,2086.88
2023-05-13T09:20:38.868Z,2154.38
2023-05-13T09:21:39.730Z,2193.75
2023-05-13T09:22:38.676Z,2199.38
2023-05-13T09:23:38.453Z,2216.25
2023-05-13T09:24:38.617Z,2221.88
2023-05-13T09:25:38.461Z,2205.00
2023-05-13T09:26:39.525Z,2193.75
2023-05-13T09:27:38.321Z,2154.38
2023-05-13T09:28:38.273Z,2131.88
2023-05-13T09:29:38.226Z,2115.00
2023-05-13T09:30:38.573Z,2081.25
2023-05-13T09:31:38.234Z,2030.63
2023-05-13T09:32:38.363Z,1985.63
2023-05-13T09:33:38.077Z,1957.50
2023-05-13T09:34:38.041Z,1890.00
2023-05-13T09:35:38.142Z,1845.00
2023-05-13T09:36:38.001Z,1816.88
2023-05-13T09:37:38.170Z,1816.88
2023-05-13T09:38:37.893Z,1783.13
2023-05-13T09:39:37.979Z,1732.50
2023-05-13T09:40:37.819Z,1721.25
2023-05-13T09:41:59.279Z,1726.88
2023-05-13T09:42:37.746Z,1755.00
2023-05-13T09:43:37.994Z,1771.88
2023-05-13T09:44:37.667Z,1771.88
2023-05-13T09:45:37.805Z,1777.50
2023-05-13T09:46:37.897Z,1794.38
2023-05-13T09:47:39.710Z,1811.25
2023-05-13T09:48:37.523Z,1861.88
2023-05-13T09:49:38.674Z,1912.50
2023-05-13T09:50:37.444Z,1923.75
2023-05-13T09:51:37.667Z,1923.75
2023-05-13T09:52:37.405Z,1935.00
2023-05-13T09:53:38.685Z,1963.13
2023-05-13T09:54:37.363Z,1985.63
2023-05-13T09:55:37.474Z,1980.00
2023-05-13T09:56:37.226Z,1968.75
2023-05-13T09:57:37.488Z,1935.00
2023-05-13T09:58:37.148Z,1946.25
2023-05-13T09:59:37.498Z,1963.13
2023-05-13T10:00:39.095Z,1985.63
2023-05-13T10:01:39.184Z,1957.50
2023-05-13T10:02:37.047Z,1957.50
2023-05-13T10:03:37.351Z,1935.00
2023-05-13T10:04:36.920Z,1890.00
2023-05-13T10:05:36.885Z,1845.00
2023-05-13T10:06:37.142Z,1845.00
2023-05-13T10:07:36.816Z,1895.63
2023-05-13T10:08:38.003Z,1974.38
2023-05-13T10:09:36.796Z,2002.50
2023-05-13T10:10:38.210Z,1980.00
2023-05-13T10:11:36.666Z,1895.63
2023-05-13T10:12:36.945Z,1766.25
2023-05-13T10:13:36.592Z,1631.25
2023-05-13T10:14:36.842Z,1468.13
2023-05-13T10:15:36.528Z,1316.25
2023-05-13T10:16:36.857Z,1209.38
2023-05-13T10:17:36.508Z,1192.50
2023-05-13T10:18:36.630Z,1215.00
2023-05-13T10:19:36.371Z,1220.63
2023-05-13T10:20:36.637Z,1321.88
2023-05-13T10:21:36.301Z,1507.50
2023-05-13T10:22:57.267Z,1732.50
2023-05-13T10:23:36.225Z,1918.13
2023-05-13T10:24:38.689Z,2041.88
2023-05-13T10:25:36.141Z,2120.63
2023-05-13T10:26:37.604Z,2160.00
2023-05-13T10:27:36.074Z,2126.25
2023-05-13T10:28:36.187Z,2070.00
2023-05-13T10:29:35.988Z,2025.00
2023-05-13T10:30:36.203Z,2041.88
2023-05-13T10:31:35.957Z,2098.13
2023-05-13T10:32:38.096Z,2250.00
2023-05-13T10:33:35.838Z,2362.50
2023-05-13T10:34:36.022Z,2362.50
2023-05-13T10:35:37.515Z,2244.38
2023-05-13T10:36:38.084Z,2137.50
2023-05-13T10:37:35.687Z,1963.13
2023-05-13T10:38:35.849Z,1923.75
2023-05-13T10:39:35.640Z,1850.63
2023-05-13T10:40:35.857Z,1873.13
2023-05-13T10:41:35.676Z,2345.63
2023-05-13T10:42:36.956Z,1760.63
2023-05-13T10:43:35.675Z,1513.13
2023-05-13T10:44:35.430Z,1344.38
2023-05-13T10:45:35.706Z,1243.13
2023-05-13T10:46:35.486Z,1243.13
2023-05-13T10:47:35.372Z,1316.25
2023-05-13T10:48:35.605Z,1395.00
2023-05-13T10:49:35.260Z,1468.13
2023-05-13T10:50:35.539Z,1541.25
2023-05-13T10:51:35.204Z,1569.38
2023-05-13T10:52:35.326Z,1546.88
2023-05-13T10:53:35.335Z,1625.63
2023-05-13T10:54:35.398Z,1563.75
2023-05-13T10:55:35.156Z,1608.75
2023-05-13T10:56:35.028Z,1693.13
2023-05-13T10:57:35.172Z,1805.63
2023-05-13T10:58:34.928Z,1935.00
2023-05-13T10:59:34.870Z,2019.38
2023-05-13T11:00:35.195Z,1912.50
2023-05-13T11:01:34.860Z,1951.88
2023-05-13T11:02:35.106Z,1828.13
2023-05-13T11:03:34.838Z,1856.25
2023-05-13T11:04:34.804Z,1890.00
2023-05-13T11:05:34.723Z,1738.13
2023-05-13T11:06:36.050Z,1479.38
2023-05-13T11:07:34.603Z,1237.50
2023-05-13T11:08:34.836Z,1085.63
2023-05-13T11:09:34.485Z,995.63
2023-05-13T11:10:34.654Z,1012.50
2023-05-13T11:11:34.664Z,1096.88
2023-05-13T11:12:34.422Z,1113.75
2023-05-13T11:13:34.506Z,1136.25
2023-05-13T11:14:34.302Z,1220.63
2023-05-13T11:15:34.484Z,1271.25
2023-05-13T11:16:34.261Z,1333.13
2023-05-13T11:17:34.200Z,1344.38
2023-05-13T11:18:34.512Z,1327.50
2023-05-13T11:19:34.112Z,1254.38
2023-05-13T11:20:48.703Z,1170.00
2023-05-13T11:21:34.041Z,1091.25
2023-05-13T11:22:34.222Z,1035.00
2023-05-13T11:23:34.016Z,984.38
2023-05-13T11:24:34.132Z,916.88
2023-05-13T11:25:33.885Z,888.75
2023-05-13T11:26:34.052Z,894.38
2023-05-13T11:27:33.818Z,939.38
2023-05-13T11:28:33.855Z,1018.13
2023-05-13T11:29:33.730Z,1102.50
2023-05-13T11:30:34.078Z,1175.63
2023-05-13T11:31:33.711Z,1209.38
2023-05-13T11:32:33.705Z,1198.13
2023-05-13T11:33:33.587Z,1254.38
2023-05-13T11:34:33.694Z,1327.50
2023-05-13T11:35:33.530Z,1440.00
2023-05-13T11:36:33.513Z,1524.38
2023-05-13T11:37:33.424Z,1580.63
2023-05-13T11:38:33.622Z,1614.38
2023-05-13T11:39:33.403Z,1636.88
2023-05-13T11:40:33.473Z,1681.88
2023-05-13T11:41:33.266Z,1726.88
2023-05-13T11:42:33.230Z,1805.63
2023-05-13T11:43:34.792Z,1839.38
2023-05-13T11:44:33.179Z,1828.13
2023-05-13T11:45:33.442Z,1833.75
2023-05-13T11:46:33.105Z,1833.75
2023-05-13T11:47:33.189Z,1833.75
2023-05-13T11:48:32.987Z,1828.13
2023-05-13T11:49:33.035Z,1755.00
2023-05-13T11:50:32.921Z,1681.88
2023-05-13T11:51:33.007Z,1642.50
2023-05-13T11:52:33.058Z,1648.13
2023-05-13T11:53:33.016Z,1642.50
2023-05-13T11:54:32.765Z,1704.38
2023-05-13T11:55:32.827Z,1693.13
2023-05-13T11:56:32.679Z,1755.00
2023-05-13T11:57:33.053Z,1873.13
2023-05-13T11:58:32.610Z,1912.50
2023-05-13T11:59:41.788Z,1873.13
2023-05-13T12:00:32.567Z,1861.88
2023-05-13T12:01:32.669Z,1833.75
2023-05-13T12:02:32.511Z,1771.88
2023-05-13T12:03:32.556Z,1698.75
2023-05-13T12:04:32.385Z,1648.13
2023-05-13T12:05:32.559Z,1659.38
2023-05-13T12:06:32.544Z,1620.00
2023-05-13T12:07:32.326Z,1906.88
2023-05-13T12:08:32.234Z,1788.75
2023-05-13T12:09:33.346Z,1524.38
2023-05-13T12:10:32.150Z,1653.75
2023-05-13T12:11:32.362Z,1805.63
2023-05-13T12:12:32.091Z,2013.75
2023-05-13T12:13:32.189Z,2238.75
2023-05-13T12:14:32.004Z,2767.50
2023-05-13T12:15:33.192Z,3037.50
2023-05-13T12:16:32.036Z,3099.38
2023-05-13T12:17:32.000Z,2778.75
2023-05-13T12:18:32.098Z,2941.88
2023-05-13T12:19:31.984Z,3026.25
2023-05-13T12:20:31.773Z,2221.88
2023-05-13T12:21:31.789Z,2075.63
2023-05-13T12:22:31.701Z,2137.50
2023-05-13T12:23:31.811Z,2182.50
2023-05-13T12:24:31.621Z,2323.13
2023-05-13T12:25:31.823Z,2356.88
2023-05-13T12:26:31.555Z,2441.25
2023-05-13T12:27:31.649Z,2570.63
2023-05-13T12:28:31.692Z,2649.38
2023-05-13T12:29:31.444Z,2745.00
2023-05-13T12:30:31.474Z,2880.00
2023-05-13T12:31:31.444Z,2992.50
2023-05-13T12:32:31.504Z,2913.75
2023-05-13T12:33:31.288Z,2581.88
2023-05-13T12:34:32.512Z,2311.88
2023-05-13T12:35:31.275Z,2160.00
2023-05-13T12:36:31.219Z,1935.00
2023-05-13T12:37:32.316Z,1800.00
2023-05-13T12:38:31.354Z,1732.50
2023-05-13T12:39:33.156Z,1687.50
2023-05-13T12:40:31.045Z,1653.75
2023-05-13T12:41:31.026Z,1608.75
2023-05-13T12:42:31.132Z,1614.38